createdAt,value
2023-03-06T00:00:46.567Z,26.18
2023-03-06T00:01:46.620Z,26.18
2023-03-06T00:02:46.608Z,26.17
2023-03-06T00:03:46.645Z,26.15
2023-03-06T00:04:46.708Z,26.15
2023-03-06T00:05:46.715Z,26.17
2023-03-06T00:06:46.721Z,26.17
2023-03-06T00:07:46.771Z,26.20
2023-03-06T00:08:46.770Z,26.20
2023-03-06T00:09:46.795Z,26.17
2023-03-06T00:10:46.841Z,26.18
2023-03-06T00:11:46.852Z,26.17
2023-03-06T00:12:46.932Z,26.17
2023-03-06T00:13:46.929Z,26.15
2023-03-06T00:14:46.947Z,26.17
2023-03-06T00:15:46.995Z,26.18
2023-03-06T00:16:46.990Z,26.17
2023-03-06T00:17:47.013Z,26.15
2023-03-06T00:18:47.056Z,26.17
2023-03-06T00:19:47.054Z,26.12
2023-03-06T00:20:47.123Z,26.15
2023-03-06T00:21:47.113Z,26.17
2023-03-06T00:22:47.159Z,26.14
2023-03-06T00:23:47.167Z,26.15
2023-03-06T00:24:47.210Z,26.17
2023-03-06T00:25:47.213Z,26.15
2023-03-06T00:26:47.268Z,26.15
2023-03-06T00:27:47.276Z,26.15
2023-03-06T00:28:47.304Z,26.14
2023-03-06T00:29:47.360Z,26.15
2023-03-06T00:30:47.363Z,26.14
2023-03-06T00:31:47.435Z,26.18
2023-03-06T00:32:47.412Z,26.12
2023-03-06T00:33:47.439Z,26.17
2023-03-06T00:34:47.460Z,26.14
2023-03-06T00:35:47.529Z,26.17
2023-03-06T00:36:47.501Z,26.15
2023-03-06T00:37:47.552Z,26.17
2023-03-06T00:38:47.560Z,26.14
2023-03-06T00:39:47.607Z,26.12
2023-03-06T00:40:47.629Z,26.15
2023-03-06T00:41:47.656Z,26.14
2023-03-06T00:42:47.699Z,26.17
2023-03-06T00:43:47.676Z,26.15
2023-03-06T00:44:47.697Z,26.17
2023-03-06T00:45:47.787Z,26.15
2023-03-06T00:46:47.749Z,26.15
2023-03-06T00:47:47.783Z,26.14
2023-03-06T00:48:47.819Z,26.15
2023-03-06T00:49:47.829Z,26.14
2023-03-06T00:50:47.841Z,26.17
2023-03-06T00:51:47.874Z,26.17
2023-03-06T00:52:47.916Z,26.15
2023-03-06T00:53:47.936Z,26.15
2023-03-06T00:54:47.968Z,26.15
2023-03-06T00:55:47.964Z,26.15
2023-03-06T00:56:48.009Z,26.15
2023-03-06T00:57:48.048Z,26.15
2023-03-06T00:58:48.045Z,26.14
2023-03-06T00:59:48.069Z,26.15
2023-03-06T01:00:48.174Z,26.15
2023-03-06T01:01:48.159Z,26.15
2023-03-06T01:02:48.127Z,26.15
2023-03-06T01:03:48.198Z,26.14
2023-03-06T01:04:48.184Z,26.15
2023-03-06T01:05:48.209Z,26.15
2023-03-06T01:06:48.231Z,26.12
2023-03-06T01:07:48.267Z,26.12
2023-03-06T01:08:48.290Z,26.15
2023-03-06T01:09:48.304Z,26.14
2023-03-06T01:10:48.382Z,26.14
2023-03-06T01:11:48.374Z,26.14
2023-03-06T01:12:48.415Z,26.14
2023-03-06T01:13:48.428Z,26.15
2023-03-06T01:14:48.469Z,26.14
2023-03-06T01:15:48.511Z,26.15
2023-03-06T01:16:48.529Z,26.12
2023-03-06T01:17:48.557Z,26.12
2023-03-06T01:18:48.573Z,26.14
2023-03-06T01:19:48.573Z,26.12
2023-03-06T01:20:48.617Z,26.12
2023-03-06T01:21:48.643Z,26.14
2023-03-06T01:22:48.657Z,26.14
2023-03-06T01:23:48.690Z,26.15
2023-03-06T01:24:48.716Z,26.11
2023-03-06T01:25:48.718Z,26.14
2023-03-06T01:26:48.763Z,26.12
2023-03-06T01:27:48.800Z,26.14
2023-03-06T01:28:48.813Z,26.12
2023-03-06T01:29:48.824Z,26.15
2023-03-06T01:30:48.884Z,26.14
2023-03-06T01:31:48.933Z,26.14
2023-03-06T01:32:48.936Z,26.12
2023-03-06T01:33:48.982Z,26.12
2023-03-06T01:34:49.019Z,26.14
2023-03-06T01:35:49.071Z,26.12
2023-03-06T01:36:49.085Z,26.12
2023-03-06T01:37:49.093Z,26.12
2023-03-06T01:38:49.141Z,26.14
2023-03-06T01:39:49.144Z,26.17
2023-03-06T01:40:49.187Z,26.12
2023-03-06T01:41:49.206Z,26.12
2023-03-06T01:42:49.231Z,26.15
2023-03-06T01:43:49.302Z,26.14
2023-03-06T01:44:49.300Z,26.17
2023-03-06T01:45:49.410Z,26.12
2023-03-06T01:46:49.377Z,26.12
2023-03-06T01:47:49.395Z,26.14
2023-03-06T01:48:49.408Z,26.11
2023-03-06T01:49:49.466Z,26.14
2023-03-06T01:50:49.475Z,26.12
2023-03-06T01:51:49.509Z,26.12
2023-03-06T01:52:49.567Z,26.12
2023-03-06T01:53:49.617Z,26.12
2023-03-06T01:54:49.598Z,26.14
2023-03-06T01:55:49.648Z,26.12
2023-03-06T01:56:49.674Z,26.12
2023-03-06T01:57:49.715Z,26.11
2023-03-06T01:58:49.740Z,26.09
2023-03-06T01:59:49.804Z,26.12
2023-03-06T02:00:49.836Z,26.11
2023-03-06T02:01:49.868Z,26.11
2023-03-06T02:02:49.911Z,26.09
2023-03-06T02:03:49.916Z,26.12
2023-03-06T02:04:49.931Z,26.11
2023-03-06T02:05:49.987Z,26.14
2023-03-06T02:06:49.987Z,26.14
2023-03-06T02:07:50.043Z,26.15
2023-03-06T02:08:50.066Z,26.17
2023-03-06T02:09:50.088Z,26.17
2023-03-06T02:10:50.115Z,26.17
2023-03-06T02:11:50.144Z,26.18
2023-03-06T02:12:50.157Z,26.21
2023-03-06T02:13:50.177Z,26.22
2023-03-06T02:14:50.218Z,26.24
2023-03-06T02:15:50.239Z,26.25
2023-03-06T02:16:50.280Z,26.27
2023-03-06T02:17:50.280Z,26.25
2023-03-06T02:18:50.290Z,26.27
2023-03-06T02:19:50.302Z,26.31
2023-03-06T02:20:50.299Z,26.34
2023-03-06T02:21:50.350Z,26.32
2023-03-06T02:22:50.332Z,26.36
2023-03-06T02:23:50.376Z,26.38
2023-03-06T02:24:50.339Z,26.39
2023-03-06T02:25:50.351Z,26.44
2023-03-06T02:26:50.349Z,26.44
2023-03-06T02:29:50.352Z,26.52
2023-03-06T02:30:50.387Z,26.52
2023-03-06T02:31:50.314Z,26.53
2023-03-06T02:32:50.375Z,26.56
2023-03-06T02:33:50.374Z,26.59
2023-03-06T02:34:50.386Z,26.59
2023-03-06T02:35:50.423Z,26.63
2023-03-06T02:36:50.432Z,26.63
2023-03-06T02:37:50.471Z,26.63
2023-03-06T02:38:50.472Z,26.66
2023-03-06T02:39:50.488Z,26.66
2023-03-06T02:40:50.533Z,26.68
2023-03-06T02:41:50.586Z,26.69
2023-03-06T02:42:50.613Z,26.71
2023-03-06T02:43:50.668Z,26.71
2023-03-06T02:44:50.727Z,26.69
2023-03-06T02:45:50.853Z,26.69
2023-03-06T02:46:50.850Z,26.72
2023-03-06T02:47:50.949Z,26.73
2023-03-06T02:48:50.992Z,26.73
2023-03-06T02:49:51.053Z,26.73
2023-03-06T02:50:51.124Z,26.73
2023-03-06T02:51:51.176Z,26.75
2023-03-06T02:52:51.232Z,26.76
2023-03-06T02:53:51.290Z,26.78
2023-03-06T02:54:51.408Z,26.78
2023-03-06T02:55:51.406Z,26.79
2023-03-06T02:56:51.491Z,26.76
2023-03-06T02:57:51.532Z,26.78
2023-03-06T02:58:51.574Z,26.78
2023-03-06T02:59:51.652Z,26.75
2023-03-06T03:00:51.699Z,26.79
2023-03-06T03:01:51.832Z,26.81
2023-03-06T03:02:51.803Z,26.81
2023-03-06T03:03:51.849Z,26.81
2023-03-06T03:04:51.946Z,26.82
2023-03-06T03:05:51.950Z,26.83
2023-03-06T03:06:52.013Z,26.85
2023-03-06T03:07:52.038Z,26.82
2023-03-06T03:08:52.129Z,26.86
2023-03-06T03:09:52.185Z,26.85
2023-03-06T03:10:52.205Z,26.87
2023-03-06T03:11:52.244Z,26.86
2023-03-06T03:12:52.266Z,26.87
2023-03-06T03:13:52.445Z,26.86
2023-03-06T03:14:52.364Z,26.86
2023-03-06T03:15:52.438Z,26.87
2023-03-06T03:16:52.502Z,26.83
2023-03-06T03:17:52.510Z,26.86
2023-03-06T03:18:52.556Z,26.86
2023-03-06T03:19:52.628Z,26.85
2023-03-06T03:20:52.700Z,26.83
2023-03-06T03:21:52.707Z,26.85
2023-03-06T03:22:52.750Z,26.86
2023-03-06T03:23:52.776Z,26.86
2023-03-06T03:24:52.946Z,26.89
2023-03-06T03:25:52.879Z,26.87
2023-03-06T03:26:52.888Z,26.89
2023-03-06T03:27:52.979Z,26.86
2023-03-06T03:28:53.039Z,26.90
2023-03-06T03:29:53.031Z,26.89
2023-03-06T03:30:53.138Z,26.89
2023-03-06T03:31:53.113Z,26.89
2023-03-06T03:32:53.154Z,26.90
2023-03-06T03:33:53.176Z,26.90
2023-03-06T03:34:53.285Z,26.90
2023-03-06T03:35:53.275Z,26.90
2023-03-06T05:19:56.169Z,27.11
2023-03-06T05:27:56.425Z,27.11
2023-03-06T05:28:56.479Z,27.10
2023-03-06T05:29:56.509Z,27.13
2023-03-06T05:30:56.528Z,27.10
2023-03-06T05:31:56.639Z,27.13
2023-03-06T05:32:56.614Z,27.13
2023-03-06T05:33:56.617Z,27.11
2023-03-06T05:34:56.662Z,27.13
2023-03-06T05:35:56.753Z,27.10
2023-03-06T05:36:56.754Z,27.11
2023-03-06T05:37:56.797Z,27.13
2023-03-06T05:38:56.824Z,27.10
2023-03-06T05:39:56.858Z,27.10
2023-03-06T05:40:56.920Z,27.13
2023-03-06T05:41:56.948Z,27.14
2023-03-06T05:42:56.953Z,27.11
2023-03-06T05:43:56.999Z,27.09
2023-03-06T05:44:57.024Z,27.11
2023-03-06T05:45:57.114Z,27.09
2023-03-06T05:46:57.080Z,27.11
2023-03-06T05:47:57.140Z,27.10
2023-03-06T05:48:57.163Z,27.09
2023-03-06T05:49:57.190Z,27.11
2023-03-06T05:50:57.218Z,27.09
2023-03-06T05:51:57.262Z,27.09
2023-03-06T05:52:57.293Z,27.09
2023-03-06T05:53:57.330Z,27.11
2023-03-06T05:54:57.360Z,27.09
2023-03-06T05:55:57.383Z,27.11
2023-03-06T05:56:57.423Z,27.13
2023-03-06T05:57:57.465Z,27.11
2023-03-06T05:58:57.502Z,27.10
2023-03-06T05:59:57.538Z,27.11
2023-03-06T06:01:04.928Z,27.11
2023-03-06T06:02:57.603Z,27.10
2023-03-06T06:03:57.601Z,27.13
2023-03-06T06:04:57.626Z,27.11
2023-03-06T06:05:57.543Z,27.13
2023-03-06T06:06:57.514Z,27.11
2023-03-06T06:07:57.519Z,27.14
2023-03-06T06:25:58.003Z,27.14
2023-03-06T06:35:57.932Z,27.04
2023-03-06T06:36:57.959Z,27.03
2023-03-06T06:37:57.993Z,26.99
2023-03-06T06:38:58.046Z,27.00
2023-03-06T06:39:58.172Z,26.99
2023-03-06T06:41:29.149Z,26.97
2023-03-06T06:42:15.463Z,26.92
2023-03-06T06:42:59.149Z,26.89
2023-03-06T06:43:59.121Z,26.86
2023-03-06T06:44:58.139Z,26.87
2023-03-06T06:46:28.274Z,26.85
2023-03-06T06:47:28.214Z,26.83
2023-03-06T06:47:59.225Z,26.81
2023-03-06T06:48:58.230Z,26.81
2023-03-06T06:49:58.145Z,26.81
2023-03-06T06:50:58.131Z,26.78
2023-03-06T06:51:58.081Z,26.75
2023-03-06T06:52:58.107Z,26.71
2023-03-06T06:53:58.075Z,26.72
2023-03-06T06:54:58.061Z,26.68
2023-03-06T06:55:58.070Z,26.69
2023-03-06T06:56:58.043Z,26.66
2023-03-06T06:57:58.053Z,26.65
2023-03-06T06:59:14.004Z,26.65
2023-03-06T06:59:59.006Z,26.72
2023-03-06T07:00:58.047Z,26.69
2023-03-06T07:01:58.049Z,26.69
2023-03-06T07:02:58.035Z,26.71
2023-03-06T07:03:58.067Z,26.69
2023-03-06T07:05:04.172Z,26.69
2023-03-06T07:05:59.009Z,26.69
2023-03-06T07:06:57.972Z,26.72
2023-03-06T07:07:57.989Z,26.69
2023-03-06T07:08:58.021Z,26.72
2023-03-06T07:09:57.966Z,26.73
2023-03-06T07:10:57.935Z,26.75
2023-03-06T07:11:57.978Z,26.75
2023-03-06T07:12:57.953Z,26.75
2023-03-06T07:13:57.924Z,26.78
2023-03-06T07:14:57.938Z,26.76
2023-03-06T07:15:58.058Z,26.81
2023-03-06T07:16:57.969Z,26.81
2023-03-06T07:17:57.912Z,26.79
2023-03-06T07:18:57.926Z,26.81
2023-03-06T07:19:57.884Z,26.82
2023-03-06T07:20:59.822Z,26.83
2023-03-06T07:21:57.895Z,26.83
2023-03-06T07:22:57.889Z,26.86
2023-03-06T07:23:58.459Z,26.87
2023-03-06T07:24:57.855Z,26.86
2023-03-06T07:25:57.872Z,26.87
2023-03-06T07:26:57.836Z,26.89
2023-03-06T07:27:57.841Z,26.92
2023-03-06T07:28:57.815Z,26.90
2023-03-06T07:29:57.810Z,26.92
2023-03-06T07:30:57.829Z,26.90
2023-03-06T07:31:57.820Z,26.93
2023-03-06T07:32:57.777Z,26.93
2023-03-06T07:33:57.824Z,26.93
2023-03-06T07:35:57.786Z,26.94
2023-03-06T07:36:57.996Z,27.00
2023-03-06T07:37:57.752Z,27.00
2023-03-06T07:38:57.757Z,27.04
2023-03-06T07:39:57.717Z,27.07
2023-03-06T07:40:57.729Z,27.10
2023-03-06T07:41:58.039Z,27.07
2023-03-06T07:43:09.172Z,27.09
2023-03-06T07:43:58.734Z,27.09
2023-03-06T07:44:57.736Z,27.07
2023-03-06T07:45:57.765Z,27.06
2023-03-06T07:46:57.778Z,27.06
2023-03-06T07:47:57.674Z,27.07
2023-03-06T07:48:57.684Z,27.06
2023-03-06T07:49:57.696Z,27.06
2023-03-06T07:50:57.677Z,27.06
2023-03-06T07:51:58.055Z,27.03
2023-03-06T07:52:57.664Z,27.07
2023-03-06T07:53:57.625Z,27.04
2023-03-06T07:54:57.658Z,27.06
2023-03-06T07:55:57.918Z,27.16
2023-03-06T07:56:58.522Z,27.18
2023-03-06T07:57:57.600Z,27.20
2023-03-06T07:58:57.625Z,27.23
2023-03-06T07:59:57.628Z,27.29
2023-03-06T08:00:57.602Z,27.30
2023-03-06T08:01:57.627Z,27.32
2023-03-06T08:02:57.666Z,27.36
2023-03-06T08:03:57.790Z,27.38
2023-03-06T08:04:57.713Z,27.38
2023-03-06T08:06:57.984Z,27.43
2023-03-06T08:07:57.685Z,27.48
2023-03-06T08:08:57.699Z,27.47
2023-03-06T08:09:57.719Z,27.44
2023-03-06T08:10:57.668Z,27.48
2023-03-06T08:11:57.697Z,27.51
2023-03-06T08:12:57.689Z,27.48
2023-03-06T08:13:57.691Z,27.48
2023-03-06T08:14:57.715Z,27.50
2023-03-06T08:15:57.750Z,27.51
2023-03-06T08:16:57.711Z,27.53
2023-03-06T08:17:57.967Z,27.48
2023-03-06T08:21:57.695Z,27.48
2023-03-06T08:22:57.977Z,27.50
2023-03-06T08:23:57.703Z,27.48
2023-03-06T08:24:57.756Z,27.50
2023-03-06T08:25:57.711Z,27.53
2023-03-06T08:26:57.751Z,27.51
2023-03-06T08:27:57.992Z,27.53
2023-03-06T08:28:57.762Z,27.48
2023-03-06T08:29:57.794Z,27.48
2023-03-06T08:30:57.822Z,27.50
2023-03-06T08:31:57.804Z,27.45
2023-03-06T08:32:57.965Z,27.47
2023-03-06T08:33:58.031Z,27.36
2023-03-06T08:34:57.901Z,26.69
2023-03-06T08:35:58.806Z,25.74
2023-03-06T08:36:57.977Z,25.08
2023-03-06T08:37:58.571Z,24.79
2023-03-06T08:38:58.088Z,24.70
2023-03-06T08:39:58.094Z,24.72
2023-03-06T08:40:58.083Z,24.81
2023-03-06T08:41:58.102Z,24.71
2023-03-06T08:42:58.547Z,24.48
2023-03-06T08:43:58.211Z,24.35
2023-03-06T08:44:58.205Z,24.40
2023-03-06T08:45:58.233Z,24.50
2023-03-06T08:46:58.282Z,24.64
2023-03-06T08:47:58.555Z,24.78
2023-03-06T08:48:58.437Z,24.91
2023-03-06T08:50:00.180Z,25.02
2023-03-06T08:50:58.451Z,25.13
2023-03-06T08:51:58.414Z,25.23
2023-03-06T08:52:58.514Z,25.36
2023-03-06T08:53:58.472Z,25.49
2023-03-06T08:54:58.516Z,25.59
2023-03-06T08:55:58.568Z,25.67
2023-03-06T08:56:58.581Z,25.77
2023-03-06T08:57:58.600Z,25.87
2023-03-06T08:58:58.594Z,25.93
2023-03-06T08:59:58.613Z,26.01
2023-03-06T09:00:58.745Z,26.07
2023-03-06T09:01:58.640Z,26.12
2023-03-06T09:02:58.750Z,26.18
2023-03-06T09:03:58.773Z,26.25
2023-03-06T09:04:58.834Z,26.27
2023-03-06T09:05:58.878Z,26.32
2023-03-06T09:06:58.948Z,26.36
2023-03-06T09:07:58.966Z,26.42
2023-03-06T09:08:58.966Z,26.46
2023-03-06T09:09:59.015Z,26.52
2023-03-06T09:10:59.121Z,26.55
2023-03-06T09:11:59.994Z,26.58
2023-03-06T09:12:59.108Z,26.60
2023-03-06T09:13:59.119Z,26.65
2023-03-06T09:14:59.161Z,26.65
2023-03-06T09:15:59.163Z,26.72
2023-03-06T09:16:59.165Z,26.72
2023-03-06T09:17:59.184Z,26.76
2023-03-06T09:18:59.140Z,26.78
2023-03-06T09:19:59.157Z,26.79
2023-03-06T09:20:59.152Z,26.81
2023-03-06T09:21:59.116Z,26.85
2023-03-06T09:22:59.103Z,26.89
2023-03-06T09:23:59.149Z,26.89
2023-03-06T09:24:59.182Z,26.90
2023-03-06T09:25:59.199Z,26.89
2023-03-06T09:26:59.203Z,26.94
2023-03-06T09:28:10.788Z,26.94
2023-03-06T09:29:00.236Z,26.94
2023-03-06T09:29:59.180Z,26.99
2023-03-06T09:30:59.372Z,26.97
2023-03-06T09:31:59.184Z,27.00
2023-03-06T09:32:59.509Z,27.10
2023-03-06T09:33:59.184Z,26.81
2023-03-06T09:34:59.179Z,25.90
2023-03-06T09:35:59.269Z,25.06
2023-03-06T09:37:59.526Z,24.34
2023-03-06T09:38:59.241Z,24.35
2023-03-06T09:39:59.505Z,24.48
2023-03-06T09:40:59.106Z,24.57
2023-03-06T09:41:59.465Z,24.68
2023-03-06T09:42:59.209Z,24.84
2023-03-06T09:43:59.177Z,25.01
2023-03-06T09:44:59.189Z,25.16
2023-03-06T09:45:59.294Z,25.29
2023-03-06T09:46:59.323Z,25.43
2023-03-06T09:47:59.339Z,25.53
2023-03-06T09:48:59.348Z,25.66
2023-03-06T09:49:59.400Z,25.74
2023-03-06T09:50:59.764Z,25.84
2023-03-06T09:51:59.412Z,25.93
2023-03-06T09:52:59.442Z,26.03
2023-03-06T09:53:59.520Z,26.08
2023-03-06T09:54:59.473Z,26.11
2023-03-06T09:55:59.512Z,26.18
2023-03-06T09:56:59.551Z,26.22
2023-03-06T09:57:59.565Z,26.27
2023-03-06T09:59:00.030Z,26.31
2023-03-06T10:00:01.009Z,26.38
2023-03-06T10:00:59.723Z,26.41
2023-03-06T10:01:59.795Z,26.45
2023-03-06T10:02:59.886Z,26.48
2023-03-06T10:03:59.859Z,26.53
2023-03-06T10:04:59.882Z,26.56
2023-03-06T10:06:02.429Z,26.60
2023-03-06T10:06:59.929Z,26.63
2023-03-06T10:07:59.921Z,26.69
2023-03-06T10:08:59.915Z,26.73
2023-03-06T10:09:59.905Z,26.75
2023-03-06T10:10:59.919Z,26.79
2023-03-06T10:11:59.900Z,26.82
2023-03-06T10:12:59.850Z,26.87
2023-03-06T10:14:00.056Z,26.85
2023-03-06T10:14:59.874Z,26.90
2023-03-06T10:15:59.903Z,26.90
2023-03-06T10:16:59.830Z,26.92
2023-03-06T10:17:59.834Z,26.97
2023-03-06T10:18:59.845Z,26.99
2023-03-06T10:19:59.893Z,26.97
2023-03-06T10:21:13.427Z,27.02
2023-03-06T10:22:00.804Z,27.00
2023-03-06T10:23:03.160Z,27.06
2023-03-06T10:24:01.058Z,27.07
2023-03-06T10:24:59.822Z,27.07
2023-03-06T10:25:59.881Z,27.11
2023-03-06T10:26:59.931Z,27.14
2023-03-06T10:27:59.846Z,27.17
2023-03-06T10:28:59.746Z,27.17
2023-03-06T10:30:03.339Z,27.17
2023-03-06T10:30:59.858Z,27.18
2023-03-06T10:31:59.841Z,27.22
2023-03-06T10:32:59.874Z,27.24
2023-03-06T10:33:59.796Z,27.23
2023-03-06T10:34:59.787Z,27.24
2023-03-06T10:35:59.803Z,27.27
2023-03-06T10:36:59.795Z,27.24
2023-03-06T10:37:59.754Z,27.30
2023-03-06T10:38:59.822Z,27.30
2023-03-06T10:39:59.793Z,27.33
2023-03-06T10:40:59.749Z,27.34
2023-03-06T10:41:59.704Z,27.30
2023-03-06T10:43:11.191Z,26.69
2023-03-06T10:44:00.763Z,25.85
2023-03-06T10:44:59.760Z,25.13
2023-03-06T10:45:59.796Z,24.72
2023-03-06T10:46:59.733Z,24.64
2023-03-06T10:47:59.696Z,24.68
2023-03-06T10:49:00.095Z,24.79
2023-03-06T10:49:59.674Z,24.93
2023-03-06T10:51:01.115Z,25.08
2023-03-06T10:51:59.644Z,25.23
2023-03-06T10:53:00.530Z,25.39
2023-03-06T10:53:59.739Z,25.54
2023-03-06T10:54:59.640Z,25.64
2023-03-06T10:55:59.629Z,25.77
2023-03-06T10:56:59.654Z,25.88
2023-03-06T10:57:59.620Z,26.00
2023-03-06T10:59:00.177Z,26.09
2023-03-06T10:59:59.613Z,26.20
2023-03-06T11:00:59.595Z,26.28
2023-03-06T11:01:59.659Z,26.35
2023-03-06T11:02:59.600Z,26.46
2023-03-06T11:03:59.585Z,26.51
2023-03-06T11:04:59.642Z,26.58
2023-03-06T11:05:59.533Z,26.63
2023-03-06T11:06:59.530Z,26.69
2023-03-06T11:07:59.597Z,26.75
2023-03-06T11:09:59.525Z,26.81
2023-03-06T11:10:59.515Z,26.86
2023-03-06T11:11:59.505Z,26.92
2023-03-06T11:12:59.482Z,26.97
2023-03-06T11:13:59.584Z,26.96
2023-03-06T11:14:59.534Z,27.02
2023-03-06T11:15:59.471Z,27.06
2023-03-06T11:16:59.472Z,27.09
2023-03-06T11:17:59.496Z,27.10
2023-03-06T11:18:59.544Z,27.16
2023-03-06T11:19:59.466Z,27.17
2023-03-06T11:20:59.440Z,27.20
2023-03-06T11:21:59.478Z,27.22
2023-03-06T11:22:59.643Z,27.26
2023-03-06T11:23:59.606Z,27.24
2023-03-06T11:24:59.429Z,27.29
2023-03-06T11:25:59.445Z,27.32
2023-03-06T11:26:59.395Z,27.33
2023-03-06T11:27:59.389Z,27.33
2023-03-06T11:28:59.460Z,27.37
2023-03-06T11:29:59.467Z,27.38
2023-03-06T11:30:59.589Z,27.38
2023-03-06T11:31:59.624Z,27.41
2023-03-06T11:32:59.618Z,27.43
2023-03-06T11:33:59.723Z,27.45
2023-03-06T11:35:00.176Z,27.50
2023-03-06T11:35:59.828Z,27.50
2023-03-06T11:36:59.823Z,27.55
2023-03-06T11:37:59.912Z,27.61
2023-03-06T11:38:59.936Z,27.64
2023-03-06T11:40:00.008Z,27.71
2023-03-06T11:41:00.001Z,27.78
2023-03-06T11:41:59.965Z,27.84
2023-03-06T11:43:00.381Z,27.84
2023-03-06T11:44:00.372Z,27.91
2023-03-06T11:45:01.314Z,27.94
2023-03-06T11:46:00.103Z,27.99
2023-03-06T11:47:00.166Z,28.01
2023-03-06T11:48:00.145Z,28.05
2023-03-06T11:49:00.120Z,28.09
2023-03-06T11:50:00.580Z,28.09
2023-03-06T11:51:00.177Z,28.11
2023-03-06T11:52:00.264Z,28.13
2023-03-06T11:53:00.219Z,28.16
2023-03-06T11:54:00.284Z,28.18
2023-03-06T11:55:00.703Z,28.18
2023-03-06T11:56:00.332Z,28.18
2023-03-06T11:57:00.333Z,28.16
2023-03-06T11:58:00.376Z,28.15
2023-03-06T11:59:00.405Z,28.16
2023-03-06T12:00:00.449Z,28.16
2023-03-06T12:01:00.517Z,28.20
2023-03-06T12:02:00.743Z,28.22
2023-03-06T12:03:00.542Z,28.20
2023-03-06T12:04:00.609Z,28.19
2023-03-06T12:05:01.203Z,28.23
2023-03-06T12:06:00.695Z,28.20
2023-03-06T12:07:00.743Z,28.20
2023-03-06T12:08:00.782Z,28.23
2023-03-06T12:09:00.864Z,28.20
2023-03-06T12:10:00.901Z,28.20
2023-03-06T12:11:00.932Z,28.22
2023-03-06T12:12:00.976Z,28.19
2023-03-06T12:13:01.063Z,28.19
2023-03-06T12:14:03.616Z,28.16
2023-03-06T12:15:01.135Z,28.16
2023-03-06T12:16:01.032Z,28.20
2023-03-06T12:17:01.080Z,28.20
2023-03-06T12:18:01.117Z,28.18
2023-03-06T12:19:01.094Z,28.18
2023-03-06T12:20:01.104Z,28.18
2023-03-06T12:21:01.043Z,28.18
2023-03-06T12:22:01.058Z,28.18
2023-03-06T12:23:14.645Z,28.16
2023-03-06T12:24:02.052Z,28.16
2023-03-06T12:25:01.058Z,28.18
2023-03-06T12:26:01.046Z,28.18
2023-03-06T12:27:01.002Z,28.16
2023-03-06T12:28:00.982Z,28.16
2023-03-06T12:29:00.998Z,28.19
2023-03-06T12:30:01.196Z,28.13
2023-03-06T12:31:00.977Z,28.13
2023-03-06T12:32:01.081Z,28.12
2023-03-06T12:33:00.956Z,28.09
2023-03-06T12:34:00.960Z,28.11
2023-03-06T12:35:01.188Z,28.09
2023-03-06T12:36:00.939Z,28.06
2023-03-06T12:37:00.904Z,28.06
2023-03-06T12:38:00.949Z,28.06
2023-03-06T12:39:00.942Z,28.04
2023-03-06T12:40:00.937Z,28.04
2023-03-06T12:41:00.895Z,28.04
2023-03-06T12:42:00.946Z,28.02
2023-03-06T12:43:00.918Z,28.02
2023-03-06T12:44:00.910Z,27.99
2023-03-06T12:45:00.956Z,28.02
2023-03-06T12:46:00.930Z,28.02
2023-03-06T12:47:00.928Z,28.01
2023-03-06T12:48:00.924Z,27.99
2023-03-06T12:49:00.934Z,27.99
2023-03-06T12:50:00.953Z,28.01
2023-03-06T12:51:00.949Z,27.96
2023-03-06T12:52:00.951Z,27.96
2023-03-06T12:53:00.915Z,27.96
2023-03-06T12:54:00.930Z,27.96
2023-03-06T12:55:00.902Z,27.95
2023-03-06T12:56:00.898Z,27.91
2023-03-06T12:57:00.918Z,27.92
2023-03-06T12:58:00.900Z,27.91
2023-03-06T12:59:00.899Z,27.89
2023-03-06T13:00:00.895Z,27.91
2023-03-06T13:01:04.732Z,27.91
2023-03-06T13:02:00.882Z,27.89
2023-03-06T13:03:00.879Z,27.89
2023-03-06T13:04:00.859Z,27.89
2023-03-06T13:05:00.868Z,27.91
2023-03-06T13:06:00.881Z,27.88
2023-03-06T13:07:00.864Z,27.92
2023-03-06T13:08:00.838Z,27.92
2023-03-06T13:09:00.824Z,27.91
2023-03-06T13:10:00.855Z,27.94
2023-03-06T13:11:00.795Z,27.92
2023-03-06T13:12:00.834Z,27.92
2023-03-06T13:13:00.896Z,27.91
2023-03-06T13:14:00.789Z,27.89
2023-03-06T13:15:00.870Z,27.89
2023-03-06T13:16:00.776Z,27.91
2023-03-06T13:17:00.781Z,27.88
2023-03-06T13:18:00.783Z,27.89
2023-03-06T13:19:00.737Z,27.87
2023-03-06T13:20:00.722Z,27.87
2023-03-06T13:21:00.742Z,27.88
2023-03-06T13:22:00.770Z,27.84
2023-03-06T13:23:00.768Z,27.84
2023-03-06T13:24:00.725Z,27.84
2023-03-06T13:25:08.164Z,27.85
2023-03-06T13:26:01.737Z,27.84
2023-03-06T13:27:00.716Z,27.84
2023-03-06T13:28:00.682Z,27.82
2023-03-06T13:29:00.684Z,27.84
2023-03-06T13:30:00.691Z,27.85
2023-03-06T13:31:00.731Z,27.82
2023-03-06T13:32:00.752Z,27.82
2023-03-06T13:33:00.628Z,27.87
2023-03-06T13:34:00.657Z,27.84
2023-03-06T13:35:00.643Z,27.82
2023-03-06T13:36:00.659Z,27.82
2023-03-06T13:37:00.621Z,27.82
2023-03-06T13:38:00.595Z,27.84
2023-03-06T13:39:00.604Z,27.85
2023-03-06T13:40:00.623Z,27.82
2023-03-06T13:41:00.621Z,27.81
2023-03-06T13:42:00.558Z,27.82
2023-03-06T13:43:00.564Z,27.81
2023-03-06T13:44:00.576Z,27.81
2023-03-06T13:45:00.561Z,27.82
2023-03-06T13:46:00.576Z,27.80
2023-03-06T13:47:00.580Z,27.81
2023-03-06T13:48:27.244Z,27.81
2023-03-06T13:49:01.522Z,27.84
2023-03-06T13:50:00.521Z,27.84
2023-03-06T13:51:00.525Z,27.85
2023-03-06T13:52:00.545Z,27.85
2023-03-06T13:53:00.493Z,27.81
2023-03-06T13:54:00.518Z,27.85
2023-03-06T13:55:00.484Z,27.85
2023-03-06T13:56:00.495Z,27.84
2023-03-06T13:57:00.455Z,27.82
2023-03-06T13:58:00.478Z,27.84
2023-03-06T13:59:00.477Z,27.85
2023-03-06T14:00:08.559Z,27.84
2023-03-06T14:01:01.476Z,27.82
2023-03-06T14:02:00.444Z,27.84
2023-03-06T14:03:00.466Z,27.85
2023-03-06T14:04:00.485Z,27.84
2023-03-06T14:05:00.411Z,27.85
2023-03-06T14:06:00.421Z,27.84
2023-03-06T14:07:00.394Z,27.85
2023-03-06T14:08:00.397Z,27.81
2023-03-06T14:09:00.369Z,27.84
2023-03-06T14:10:00.361Z,27.85
2023-03-06T14:11:00.379Z,27.85
2023-03-06T14:12:00.356Z,27.82
2023-03-06T14:13:00.373Z,27.84
2023-03-06T14:14:00.336Z,27.84
2023-03-06T14:15:00.345Z,27.85
2023-03-06T14:16:00.403Z,27.84
2023-03-06T14:17:00.327Z,27.84
2023-03-06T14:18:00.319Z,27.84
2023-03-06T14:19:00.318Z,27.85
2023-03-06T14:20:00.314Z,27.84
2023-03-06T14:21:00.293Z,27.80
2023-03-06T14:22:00.303Z,27.72
2023-03-06T14:23:00.268Z,27.65
